createdAt,value
2023-03-11T00:00:15.053Z,69
2023-03-11T00:00:46.965Z,69
2023-03-11T00:01:02.003Z,69
2023-03-11T00:01:33.638Z,69
2023-03-11T00:02:05.529Z,69
2023-03-11T00:02:37.438Z,69
2023-03-11T00:03:09.617Z,69
2023-03-11T00:03:41.554Z,69
2023-03-11T00:04:13.329Z,69
2023-03-11T00:04:29.557Z,69
2023-03-11T00:05:02.076Z,69
2023-03-11T00:05:45.970Z,70
2023-03-11T00:06:17.261Z,69
2023-03-11T00:06:49.204Z,69
2023-03-11T00:07:21.303Z,69
2023-03-11T00:07:53.371Z,69
2023-03-11T00:08:25.241Z,70
2023-03-11T00:08:57.245Z,70
2023-03-11T00:09:13.254Z,70
2023-03-11T00:09:57.256Z,69
2023-03-11T00:10:30.311Z,69
2023-03-11T00:11:01.331Z,70
2023-03-11T00:11:33.013Z,70
2023-03-11T00:12:05.296Z,69
2023-03-11T00:12:37.131Z,69
2023-03-11T00:13:08.968Z,69
2023-03-11T00:13:41.201Z,70
2023-03-11T00:14:13.139Z,70
2023-03-11T00:14:45.180Z,70
2023-03-11T00:15:17.609Z,70
2023-03-11T00:15:48.944Z,70
2023-03-11T00:16:21.096Z,70
2023-03-11T00:16:53.066Z,70
2023-03-11T00:17:24.776Z,71
2023-03-11T00:17:56.803Z,71
2023-03-11T00:18:12.935Z,71
2023-03-11T00:18:44.940Z,71
2023-03-11T00:19:01.225Z,71
2023-03-11T00:19:32.731Z,71
2023-03-11T00:20:05.014Z,71
2023-03-11T00:20:36.888Z,71
2023-03-11T00:21:08.837Z,70
2023-03-11T00:21:40.571Z,70
2023-03-11T00:22:12.846Z,70
2023-03-11T00:22:28.684Z,70
2023-03-11T00:23:00.787Z,71
2023-03-11T00:23:44.832Z,71
2023-03-11T00:24:16.399Z,71
2023-03-11T00:24:48.642Z,70
2023-03-11T00:25:20.830Z,70
2023-03-11T00:25:52.718Z,70
2023-03-11T00:26:24.482Z,70
2023-03-11T00:26:56.517Z,70
2023-03-11T00:27:12.909Z,71
2023-03-11T00:27:56.480Z,71
2023-03-11T00:28:28.464Z,71
2023-03-11T00:29:00.415Z,71
2023-03-11T00:29:32.430Z,71
2023-03-11T00:30:06.537Z,72
2023-03-11T00:30:36.378Z,72
2023-03-11T00:31:08.309Z,71
2023-03-11T00:31:40.262Z,71
2023-03-11T00:32:12.525Z,71
2023-03-11T00:32:44.449Z,72
2023-03-11T00:33:16.223Z,72
2023-03-11T00:33:48.250Z,71
2023-03-11T00:34:20.305Z,72
2023-03-11T00:34:52.209Z,71
2023-03-11T00:35:24.399Z,72
2023-03-11T00:35:56.436Z,72
2023-03-11T00:36:28.125Z,72
2023-03-11T00:36:59.983Z,72
2023-03-11T00:37:32.065Z,72
2023-03-11T00:38:04.511Z,72
2023-03-11T00:38:36.139Z,73
2023-03-11T00:39:07.832Z,72
2023-03-11T00:39:39.941Z,72
2023-03-11T00:40:12.365Z,72
2023-03-11T00:40:43.874Z,72
2023-03-11T00:41:15.889Z,72
2023-03-11T00:41:47.714Z,72
2023-03-11T00:42:19.736Z,72
2023-03-11T00:42:52.113Z,72
2023-03-11T00:43:23.678Z,72
2023-03-11T00:43:55.785Z,72
2023-03-11T00:44:12.073Z,72
2023-03-11T00:44:55.854Z,72
2023-03-11T00:45:28.308Z,72
2023-03-11T00:45:59.835Z,72
2023-03-11T00:46:31.720Z,71
2023-03-11T00:47:04.481Z,71
2023-03-11T00:47:35.902Z,71
2023-03-11T00:48:07.417Z,71
2023-03-11T00:48:39.589Z,71
2023-03-11T00:49:11.802Z,71
2023-03-11T00:49:43.472Z,71
2023-03-11T00:50:15.890Z,71
2023-03-11T00:50:47.534Z,71
2023-03-11T00:51:19.460Z,71
2023-03-11T00:51:51.765Z,72
2023-03-11T00:52:23.350Z,72
2023-03-11T00:52:55.405Z,72
2023-03-11T00:53:11.639Z,72
2023-03-11T00:53:43.314Z,72
2023-03-11T00:53:59.505Z,72
2023-03-11T00:54:31.341Z,72
2023-03-11T00:55:04.137Z,72
2023-03-11T00:55:35.261Z,72
2023-03-11T00:56:07.388Z,72
2023-03-11T00:56:39.128Z,72
2023-03-11T00:57:11.353Z,71
2023-03-11T00:57:27.291Z,71
2023-03-11T00:57:59.042Z,71
2023-03-11T00:58:43.213Z,71
2023-03-11T00:59:15.083Z,72
2023-03-11T00:59:46.936Z,72
2023-03-11T01:00:20.253Z,71
2023-03-11T01:00:51.419Z,71
2023-03-11T01:01:23.067Z,71
2023-03-11T01:01:54.919Z,71
2023-03-11T01:02:11.217Z,71
2023-03-11T01:02:55.047Z,71
2023-03-11T01:03:27.221Z,72
2023-03-11T01:03:58.759Z,72
2023-03-11T01:04:30.923Z,72
2023-03-11T01:05:05.212Z,72
2023-03-11T01:05:34.907Z,72
2023-03-11T01:06:06.828Z,72
2023-03-11T01:06:45.129Z,72
2023-03-11T01:07:11.452Z,72
2023-03-11T01:07:42.814Z,72
2023-03-11T01:08:14.674Z,72
2023-03-11T01:08:46.627Z,72
2023-03-11T01:09:18.638Z,72
2023-03-11T01:09:50.759Z,72
2023-03-11T01:10:22.816Z,72
2023-03-11T01:10:54.524Z,72
2023-03-11T01:11:26.603Z,73
2023-03-11T01:11:58.570Z,73
2023-03-11T01:12:30.505Z,72
2023-03-11T01:13:03.115Z,72
2023-03-11T01:13:34.568Z,72
2023-03-11T01:14:06.593Z,72
2023-03-11T01:14:38.357Z,72
2023-03-11T01:15:11.315Z,72
2023-03-11T01:15:26.563Z,72
2023-03-11T01:15:58.655Z,72
2023-03-11T01:16:42.538Z,72
2023-03-11T01:17:14.145Z,72
2023-03-11T01:17:46.461Z,72
2023-03-11T01:18:18.365Z,72
2023-03-11T01:18:50.221Z,72
2023-03-11T01:19:22.293Z,72
2023-03-11T01:19:54.245Z,72
2023-03-11T01:20:10.789Z,72
2023-03-11T01:20:54.244Z,73
2023-03-11T01:21:26.187Z,73
2023-03-11T01:21:58.053Z,72
2023-03-11T01:22:30.148Z,72
2023-03-11T01:23:02.411Z,72
2023-03-11T01:23:34.249Z,72
2023-03-11T01:24:06.022Z,73
2023-03-11T01:24:37.962Z,73
2023-03-11T01:25:10.300Z,73
2023-03-11T01:25:42.115Z,73
2023-03-11T01:26:13.846Z,73
2023-03-11T01:26:46.121Z,73
2023-03-11T01:27:17.893Z,73
2023-03-11T01:27:49.898Z,73
2023-03-11T01:28:21.930Z,73
2023-03-11T01:28:53.867Z,73
2023-03-11T01:29:10.080Z,73
2023-03-11T01:29:41.935Z,74
2023-03-11T01:29:57.829Z,74
2023-03-11T01:30:30.207Z,74
2023-03-11T01:31:02.057Z,74
2023-03-11T01:31:33.807Z,74
2023-03-11T01:32:05.821Z,74
2023-03-11T01:32:37.652Z,74
2023-03-11T01:33:09.797Z,74
2023-03-11T01:33:25.825Z,74
2023-03-11T01:33:57.662Z,74
2023-03-11T01:34:41.837Z,75
2023-03-11T01:35:13.866Z,74
2023-03-11T01:35:45.876Z,74
2023-03-11T01:36:17.503Z,74
2023-03-11T01:36:49.788Z,74
2023-03-11T01:37:21.613Z,73
2023-03-11T01:37:53.499Z,73
2023-03-11T01:38:09.766Z,73
2023-03-11T01:38:53.428Z,73
2023-03-11T01:39:25.592Z,73
2023-03-11T01:39:57.342Z,73
2023-03-11T01:40:29.662Z,73
2023-03-11T01:41:01.811Z,73
2023-03-11T01:41:33.528Z,73
2023-03-11T01:42:05.254Z,74
2023-03-11T01:42:37.242Z,74
2023-03-11T01:43:09.357Z,74
2023-03-11T01:43:41.480Z,73
2023-03-11T01:44:13.153Z,73
2023-03-11T01:44:45.377Z,73
2023-03-11T01:45:18.013Z,73
2023-03-11T01:45:49.530Z,72
2023-03-11T01:46:21.298Z,72
2023-03-11T01:46:53.105Z,72
2023-03-11T01:47:26.043Z,72
2023-03-11T01:47:57.074Z,72
2023-03-11T01:48:29.011Z,72
2023-03-11T01:49:01.384Z,72
2023-03-11T01:49:33.165Z,71
2023-03-11T01:50:05.394Z,71
2023-03-11T01:50:36.995Z,70
2023-03-11T01:51:08.945Z,71
2023-03-11T01:51:25.126Z,71
2023-03-11T01:51:56.828Z,71
2023-03-11T01:52:41.233Z,71
2023-03-11T01:53:12.918Z,71
2023-03-11T01:53:45.019Z,71
2023-03-11T01:54:16.909Z,71
2023-03-11T01:54:51.434Z,72
2023-03-11T01:55:21.251Z,72
2023-03-11T01:55:53.026Z,72
2023-03-11T01:56:24.890Z,72
2023-03-11T01:56:56.851Z,72
2023-03-11T01:57:28.604Z,71
2023-03-11T01:58:00.764Z,72
2023-03-11T01:58:32.663Z,71
2023-03-11T01:59:05.274Z,71
2023-03-11T01:59:36.673Z,71
2023-03-11T02:00:09.459Z,72
2023-03-11T02:00:40.753Z,72
2023-03-11T02:01:12.790Z,71
2023-03-11T02:01:44.536Z,71
2023-03-11T02:02:16.745Z,71
2023-03-11T02:02:48.633Z,71
2023-03-11T02:03:20.720Z,72
2023-03-11T02:03:52.705Z,71
2023-03-11T02:04:24.544Z,71
2023-03-11T02:04:56.455Z,72
2023-03-11T02:05:28.726Z,72
2023-03-11T02:06:00.433Z,72
2023-03-11T02:06:32.229Z,72
2023-03-11T02:07:04.907Z,73
2023-03-11T02:07:36.472Z,72
2023-03-11T02:08:08.206Z,72
2023-03-11T02:08:24.471Z,72
2023-03-11T02:08:56.155Z,72
2023-03-11T02:09:40.290Z,72
2023-03-11T02:10:12.618Z,72
2023-03-11T02:10:44.009Z,72
2023-03-11T02:11:16.293Z,72
2023-03-11T02:11:48.144Z,72
2023-03-11T02:12:20.091Z,72
2023-03-11T02:12:52.248Z,72
2023-03-11T02:13:23.958Z,72
2023-03-11T02:13:56.036Z,72
2023-03-11T02:14:28.068Z,72
2023-03-11T02:14:59.857Z,72
2023-03-11T02:15:32.320Z,72
2023-03-11T02:16:04.376Z,72
2023-03-11T02:16:35.909Z,72
2023-03-11T02:17:07.943Z,72
2023-03-11T02:17:23.781Z,72
2023-03-11T02:18:08.023Z,72
2023-03-11T02:18:40.045Z,73
2023-03-11T02:19:11.753Z,73
2023-03-11T02:19:43.618Z,73
2023-03-11T02:20:16.134Z,73
2023-03-11T02:20:47.929Z,72
2023-03-11T02:21:19.896Z,72
2023-03-11T02:21:51.857Z,72
2023-03-11T02:22:07.838Z,72
2023-03-11T02:22:39.556Z,71
2023-03-11T02:22:55.725Z,71
2023-03-11T02:23:27.651Z,72
2023-03-11T02:23:59.503Z,72
2023-03-11T02:24:31.685Z,72
2023-03-11T02:25:04.338Z,72
2023-03-11T02:25:35.525Z,72
2023-03-11T02:26:07.570Z,73
2023-03-11T02:26:23.559Z,72
2023-03-11T02:26:55.675Z,72
2023-03-11T02:27:39.564Z,72
2023-03-11T02:28:11.527Z,72
2023-03-11T02:28:43.286Z,72
2023-03-11T02:29:15.500Z,72
2023-03-11T02:29:47.266Z,72
2023-03-11T02:30:19.822Z,72
2023-03-11T02:30:51.549Z,72
2023-03-11T02:31:07.576Z,72
2023-03-11T02:31:51.447Z,72
2023-03-11T02:32:23.492Z,72
2023-03-11T02:32:55.320Z,72
2023-03-11T02:33:27.112Z,72
2023-03-11T02:33:59.178Z,71
2023-03-11T02:34:31.176Z,72
2023-03-11T02:35:03.755Z,73
2023-03-11T02:35:35.168Z,73
2023-03-11T02:36:07.144Z,73
2023-03-11T02:36:23.193Z,73
2023-03-11T02:37:07.222Z,72
2023-03-11T02:37:39.020Z,72
2023-03-11T02:38:10.965Z,73
2023-03-11T02:38:42.881Z,73
2023-03-11T02:39:15.054Z,73
2023-03-11T02:39:47.144Z,73
2023-03-11T02:40:19.170Z,72
2023-03-11T02:40:50.787Z,73
2023-03-11T02:41:22.890Z,73
2023-03-11T02:41:54.990Z,73
2023-03-11T02:42:26.723Z,72
2023-03-11T02:42:58.769Z,72
2023-03-11T02:43:31.109Z,72
2023-03-11T02:44:03.078Z,73
2023-03-11T02:44:34.736Z,73
2023-03-11T02:45:07.845Z,73
2023-03-11T02:45:38.680Z,73
2023-03-11T02:46:10.562Z,73
2023-03-11T02:46:42.775Z,73
2023-03-11T02:47:14.627Z,73
2023-03-11T02:47:46.716Z,74
2023-03-11T02:48:18.676Z,74
2023-03-11T02:48:50.446Z,74
2023-03-11T02:49:06.848Z,74
2023-03-11T02:49:50.535Z,74
2023-03-11T02:50:23.125Z,74
2023-03-11T02:50:54.430Z,74
2023-03-11T02:51:26.409Z,74
2023-03-11T02:51:58.406Z,74
2023-03-11T02:52:30.811Z,74
2023-03-11T02:53:02.749Z,74
2023-03-11T02:53:34.358Z,74
2023-03-11T02:54:06.405Z,74
2023-03-11T02:54:38.394Z,74
2023-03-11T02:55:10.462Z,74
2023-03-11T02:55:42.401Z,74
2023-03-11T02:56:14.174Z,74
2023-03-11T02:56:46.398Z,74
2023-03-11T02:57:18.104Z,74
2023-03-11T02:57:50.333Z,75
2023-03-11T02:58:22.260Z,74
2023-03-11T02:58:54.078Z,74
2023-03-11T02:59:26.077Z,74
2023-03-11T02:59:58.093Z,74
2023-03-11T03:00:30.430Z,74
2023-03-11T03:01:02.794Z,74
2023-03-11T03:01:33.939Z,74
2023-03-11T03:02:05.939Z,74
2023-03-11T03:02:22.073Z,74
2023-03-11T03:02:53.776Z,73
2023-03-11T03:03:38.200Z,73
2023-03-11T03:04:09.970Z,73
2023-03-11T03:04:42.012Z,74
2023-03-11T03:05:14.233Z,73
2023-03-11T03:05:46.089Z,73
2023-03-11T03:06:17.767Z,73
2023-03-11T03:06:49.876Z,73
2023-03-11T03:07:22.195Z,73
2023-03-11T03:07:53.770Z,72
2023-03-11T03:08:25.895Z,72
2023-03-11T03:08:42.061Z,72
2023-03-11T03:09:13.702Z,72
2023-03-11T03:09:57.754Z,71
2023-03-11T03:10:29.928Z,71
2023-03-11T03:11:02.023Z,71
2023-03-11T03:11:33.579Z,71
2023-03-11T03:12:05.706Z,71
2023-03-11T03:12:37.645Z,71
2023-03-11T03:12:53.559Z,72
2023-03-11T03:13:25.530Z,72
2023-03-11T03:14:09.576Z,72
2023-03-11T03:14:41.829Z,71
2023-03-11T03:15:14.517Z,71
2023-03-11T03:15:45.592Z,71
2023-03-11T03:16:17.471Z,71
2023-03-11T03:16:49.631Z,71
2023-03-11T03:17:21.424Z,71
2023-03-11T03:17:37.756Z,71
2023-03-11T03:18:21.391Z,71
2023-03-11T03:18:53.272Z,71
2023-03-11T03:19:25.499Z,71
2023-03-11T03:19:57.135Z,71
2023-03-11T03:20:29.514Z,71
2023-03-11T03:21:01.863Z,72
2023-03-11T03:21:33.392Z,72
2023-03-11T03:22:05.592Z,72
2023-03-11T03:22:21.456Z,71
2023-03-11T03:22:53.209Z,71
2023-03-11T03:23:37.253Z,72
2023-03-11T03:24:08.926Z,72
2023-03-11T03:24:41.086Z,72
2023-03-11T03:25:13.314Z,72
2023-03-11T03:25:29.968Z,72
2023-03-11T03:25:46.601Z,72
2023-03-11T03:26:17.896Z,72
2023-03-11T03:26:50.161Z,72
2023-03-11T03:27:22.226Z,72
2023-03-11T03:27:54.057Z,72
2023-03-11T03:28:26.207Z,72
2023-03-11T03:28:58.040Z,72
2023-03-11T03:29:13.978Z,72
2023-03-11T03:29:57.908Z,72
2023-03-11T03:30:30.346Z,72
2023-03-11T03:31:02.324Z,72
2023-03-11T03:31:33.743Z,71
2023-03-11T03:32:05.943Z,71
2023-03-11T03:32:37.961Z,71
2023-03-11T03:33:09.569Z,71
2023-03-11T03:33:41.710Z,71
2023-03-11T03:34:13.609Z,71
2023-03-11T03:34:45.759Z,72
2023-03-11T03:35:17.685Z,72
2023-03-11T03:35:49.790Z,72
2023-03-11T03:36:21.633Z,72
2023-03-11T03:36:53.613Z,72
2023-03-11T03:37:25.529Z,72
2023-03-11T03:37:57.453Z,72
2023-03-11T03:38:29.600Z,72
2023-03-11T03:39:02.120Z,72
2023-03-11T03:39:33.393Z,72
2023-03-11T03:40:05.900Z,73
2023-03-11T03:40:37.427Z,73
2023-03-11T03:41:09.413Z,73
2023-03-11T03:41:41.366Z,72
2023-03-11T03:41:57.504Z,72
2023-03-11T03:42:41.590Z,73
2023-03-11T03:42:57.394Z,73
2023-03-11T03:43:41.407Z,72
2023-03-11T03:44:13.339Z,72
2023-03-11T03:44:44.995Z,72
2023-03-11T03:45:17.896Z,72
2023-03-11T03:45:49.301Z,72
2023-03-11T03:46:21.340Z,72
2023-03-11T03:46:53.116Z,73
2023-03-11T03:47:25.110Z,73
2023-03-11T03:47:57.208Z,73
2023-03-11T03:48:29.174Z,73
2023-03-11T03:49:01.244Z,73
2023-03-11T03:49:33.020Z,73
2023-03-11T03:50:05.600Z,73
2023-03-11T03:50:37.135Z,73
2023-03-11T03:51:08.930Z,73
2023-03-11T03:51:40.975Z,73
2023-03-11T03:52:12.888Z,73
2023-03-11T03:52:44.963Z,73
2023-03-11T03:53:16.802Z,73
2023-03-11T03:53:48.796Z,73
2023-03-11T03:54:20.913Z,73
2023-03-11T03:54:53.043Z,74
2023-03-11T03:55:24.934Z,73
2023-03-11T03:55:56.898Z,73
2023-03-11T03:56:12.825Z,73
2023-03-11T03:56:44.664Z,73
2023-03-11T03:57:28.838Z,73
2023-03-11T03:58:00.604Z,73
2023-03-11T03:58:32.975Z,73
2023-03-11T03:59:05.000Z,73
2023-03-11T03:59:36.643Z,73
2023-03-11T04:00:08.940Z,73
2023-03-11T04:00:40.822Z,74
2023-03-11T04:01:12.570Z,74
2023-03-11T04:01:44.736Z,74
2023-03-11T04:02:16.464Z,74
2023-03-11T04:02:48.393Z,74
2023-03-11T04:03:20.550Z,74
2023-03-11T04:03:52.727Z,74
2023-03-11T04:04:24.220Z,74
2023-03-11T04:04:56.494Z,74
2023-03-11T04:05:12.926Z,74
2023-03-11T04:05:56.552Z,74
2023-03-11T04:06:28.391Z,74
2023-03-11T04:07:00.197Z,74
2023-03-11T04:07:32.529Z,74
2023-03-11T04:08:04.568Z,73
2023-03-11T04:08:36.321Z,74
2023-03-11T04:09:08.233Z,74
2023-03-11T04:09:40.169Z,74
2023-03-11T04:10:12.593Z,74
2023-03-11T04:10:44.257Z,74
2023-03-11T04:11:16.119Z,74
2023-03-11T04:11:48.034Z,74
2023-03-11T04:12:20.046Z,75
2023-03-11T04:12:52.294Z,75
2023-03-11T04:13:23.972Z,75
2023-03-11T04:13:56.170Z,75
2023-03-11T04:14:28.109Z,75
2023-03-11T04:15:00.024Z,75
2023-03-11T04:15:32.423Z,75
2023-03-11T04:16:04.085Z,75
2023-03-11T04:16:36.133Z,75
2023-03-11T04:17:08.236Z,75
2023-03-11T04:17:39.684Z,75
2023-03-11T04:17:56.127Z,75
2023-03-11T04:18:39.662Z,75
2023-03-11T04:19:11.952Z,75
2023-03-11T04:19:43.819Z,75
2023-03-11T04:20:15.968Z,75
2023-03-11T04:20:47.757Z,75
2023-03-11T04:21:19.804Z,75
2023-03-11T04:21:51.963Z,75
2023-03-11T04:22:23.602Z,75
2023-03-11T04:22:55.618Z,75
2023-03-11T04:23:27.640Z,75
2023-03-11T04:23:59.716Z,75
2023-03-11T04:24:31.782Z,75
2023-03-11T04:25:04.072Z,76
2023-03-11T04:25:35.624Z,76
2023-03-11T04:26:07.678Z,76
2023-03-11T04:26:39.443Z,76
2023-03-11T04:27:11.712Z,76
2023-03-11T04:27:43.393Z,76
2023-03-11T04:28:15.442Z,76
2023-03-11T04:28:47.287Z,76
2023-03-11T04:29:19.311Z,76
2023-03-11T04:29:51.347Z,76
2023-03-11T04:30:23.598Z,76
2023-03-11T04:30:55.423Z,76
2023-03-11T04:31:11.517Z,76
2023-03-11T04:31:43.053Z,76
2023-03-11T04:32:27.548Z,76
2023-03-11T04:32:59.102Z,76
2023-03-11T04:33:15.373Z,76
2023-03-11T04:33:47.382Z,76
2023-03-11T04:34:31.275Z,76
2023-03-11T04:35:03.884Z,76
2023-03-11T04:35:35.079Z,76
2023-03-11T04:36:07.022Z,76
2023-03-11T04:36:39.046Z,76
2023-03-11T04:37:11.172Z,76
2023-03-11T04:37:42.820Z,76
2023-03-11T04:38:15.025Z,76
2023-03-11T04:38:46.969Z,76
2023-03-11T04:39:19.034Z,76
2023-03-11T04:39:51.069Z,76
2023-03-11T04:40:23.226Z,76
2023-03-11T04:40:54.829Z,76
2023-03-11T04:41:26.915Z,76
2023-03-11T04:41:58.790Z,76
2023-03-11T04:42:30.922Z,76
2023-03-11T04:43:03.553Z,76
2023-03-11T04:43:34.998Z,76
2023-03-11T04:44:06.829Z,77
2023-03-11T04:44:38.718Z,76
2023-03-11T04:45:11.748Z,76
2023-03-11T04:45:42.796Z,76
2023-03-11T04:46:14.631Z,76
2023-03-11T04:46:46.679Z,76
2023-03-11T04:47:18.713Z,76
2023-03-11T04:47:50.726Z,76
2023-03-11T04:48:22.599Z,76
2023-03-11T04:48:54.508Z,77
2023-03-11T04:49:26.580Z,77
2023-03-11T04:49:58.566Z,77
2023-03-11T04:50:30.705Z,77
2023-03-11T04:51:02.975Z,77
2023-03-11T04:51:35.070Z,77
2023-03-11T04:52:06.626Z,77
2023-03-11T04:52:38.380Z,77
2023-03-11T04:52:54.545Z,77
2023-03-11T04:53:38.467Z,77
2023-03-11T04:54:10.329Z,77
2023-03-11T04:54:42.517Z,78
2023-03-11T04:55:14.461Z,78
2023-03-11T04:55:46.387Z,78
2023-03-11T04:56:18.398Z,79
2023-03-11T04:56:50.346Z,78
2023-03-11T04:57:22.265Z,78
2023-03-11T04:57:54.295Z,78
2023-03-11T04:58:26.403Z,78
2023-03-11T04:58:58.155Z,78
2023-03-11T04:59:30.190Z,78
2023-03-11T05:00:06.502Z,78
2023-03-11T05:00:34.130Z,78
2023-03-11T05:01:06.288Z,78
2023-03-11T05:01:38.244Z,78
2023-03-11T05:01:54.241Z,79
2023-03-11T05:02:26.017Z,79
2023-03-11T05:02:42.276Z,79
2023-03-11T05:03:14.096Z,79
2023-03-11T05:03:45.923Z,79
2023-03-11T05:04:17.970Z,79
2023-03-11T05:04:50.189Z,79
2023-03-11T05:05:22.747Z,79
2023-03-11T05:05:54.255Z,79
2023-03-11T05:06:09.839Z,79
2023-03-11T05:06:42.247Z,79
2023-03-11T05:07:25.927Z,79
2023-03-11T05:07:57.824Z,79
2023-03-11T05:08:29.745Z,79
2023-03-11T05:09:02.336Z,78
2023-03-11T05:09:33.743Z,78
2023-03-11T05:10:06.025Z,78
2023-03-11T05:10:37.559Z,79
2023-03-11T05:11:09.619Z,79
2023-03-11T05:11:42.064Z,79
2023-03-11T05:12:13.684Z,79
2023-03-11T05:12:45.697Z,79
2023-03-11T05:13:17.512Z,79
2023-03-11T05:13:49.469Z,80
2023-03-11T05:14:21.636Z,80
2023-03-11T05:14:53.536Z,80
2023-03-11T05:15:10.442Z,80
2023-03-11T05:15:53.485Z,80
2023-03-11T05:16:25.477Z,80
2023-03-11T05:16:57.541Z,80
2023-03-11T05:17:29.312Z,80
2023-03-11T05:18:01.841Z,80
2023-03-11T05:18:33.414Z,80
2023-03-11T05:19:05.563Z,80
2023-03-11T05:19:37.245Z,80
2023-03-11T05:20:09.599Z,80
2023-03-11T05:20:41.461Z,80
2023-03-11T05:21:13.195Z,80
2023-03-11T05:21:45.208Z,80
2023-03-11T05:22:17.244Z,80
2023-03-11T05:22:49.132Z,80
2023-03-11T05:23:21.123Z,80
2023-03-11T05:23:53.149Z,80
2023-03-11T05:24:09.265Z,80
2023-03-11T05:24:41.038Z,80
2023-03-11T05:25:25.409Z,80
2023-03-11T05:25:56.932Z,80
2023-03-11T05:26:28.951Z,80
2023-03-11T05:27:01.170Z,80
2023-03-11T05:27:33.025Z,80
2023-03-11T05:28:05.623Z,80
2023-03-11T05:28:37.024Z,80
2023-03-11T05:28:53.136Z,80
2023-03-11T05:29:36.963Z,80
2023-03-11T05:30:09.795Z,80
2023-03-11T05:30:40.912Z,80
2023-03-11T05:31:12.916Z,80
2023-03-11T05:31:44.817Z,80
2023-03-11T05:32:16.761Z,79
2023-03-11T05:32:48.985Z,79
2023-03-11T05:33:20.769Z,79
2023-03-11T05:33:52.837Z,79
2023-03-11T05:34:24.718Z,79
2023-03-11T05:34:56.712Z,79
2023-03-11T05:35:28.908Z,79
2023-03-11T05:36:00.658Z,79
2023-03-11T05:36:32.651Z,79
2023-03-11T05:37:04.785Z,79
2023-03-11T05:37:36.583Z,79
2023-03-11T05:37:52.687Z,79
2023-03-11T05:38:24.500Z,79
2023-03-11T05:38:40.440Z,79
2023-03-11T05:39:12.857Z,79
2023-03-11T05:39:44.395Z,79
2023-03-11T05:40:16.532Z,79
2023-03-11T05:40:48.449Z,79
2023-03-11T05:41:20.552Z,79
2023-03-11T05:41:52.285Z,79
2023-03-11T05:42:08.501Z,79
2023-03-11T05:42:40.222Z,79
2023-03-11T05:43:24.399Z,79
2023-03-11T05:43:56.435Z,79
2023-03-11T05:44:28.233Z,79
2023-03-11T05:45:01.275Z,79
2023-03-11T05:45:32.440Z,79
2023-03-11T05:46:04.790Z,78
2023-03-11T05:46:36.541Z,78
2023-03-11T05:47:08.328Z,78
2023-03-11T05:47:40.389Z,78
2023-03-11T05:48:12.626Z,78
2023-03-11T05:48:44.123Z,78
2023-03-11T05:49:16.269Z,78
2023-03-11T05:49:48.299Z,78
2023-03-11T05:50:20.554Z,78
2023-03-11T05:50:52.214Z,78
2023-03-11T05:51:08.283Z,78
2023-03-11T05:51:52.125Z,78
2023-03-11T05:52:24.049Z,78
2023-03-11T05:52:56.231Z,78
2023-03-11T05:53:28.046Z,78
2023-03-11T05:54:00.099Z,78
2023-03-11T05:54:32.048Z,78
2023-03-11T05:55:04.606Z,78
2023-03-11T05:55:36.023Z,78
2023-03-11T05:55:52.390Z,78
2023-03-11T05:56:23.894Z,78
2023-03-11T05:56:39.976Z,78
2023-03-11T05:57:11.972Z,78
2023-03-11T05:57:43.773Z,78
2023-03-11T05:58:15.991Z,78
2023-03-11T05:58:47.855Z,78
2023-03-11T05:59:19.613Z,78
2023-03-11T05:59:51.834Z,78
2023-03-11T06:00:13.490Z,78
2023-03-11T06:00:39.743Z,78
2023-03-11T06:01:23.868Z,78
2023-03-11T06:01:55.624Z,78
2023-03-11T06:02:27.779Z,78
2023-03-11T06:02:59.811Z,78
2023-03-11T06:03:31.766Z,78
2023-03-11T06:04:04.792Z,78
2023-03-11T06:04:35.670Z,78
2023-03-11T06:04:52.247Z,78
2023-03-11T06:05:35.877Z,78
2023-03-11T06:06:07.618Z,78
2023-03-11T06:06:39.463Z,78
2023-03-11T06:07:11.671Z,78
2023-03-11T06:07:43.472Z,78
2023-03-11T06:08:15.606Z,78
2023-03-11T06:08:47.423Z,78
2023-03-11T06:09:19.406Z,78
2023-03-11T06:09:52.077Z,78
2023-03-11T06:10:23.666Z,78
2023-03-11T06:10:55.273Z,78
2023-03-11T06:11:29.268Z,78
2023-03-11T06:11:59.406Z,78
2023-03-11T06:12:31.565Z,78
2023-03-11T06:13:04.024Z,78
2023-03-11T06:13:35.161Z,78
2023-03-11T06:14:07.270Z,78
2023-03-11T06:14:39.299Z,78
2023-03-11T06:15:12.140Z,78
2023-03-11T06:15:43.096Z,78
2023-03-11T06:16:15.201Z,78
2023-03-11T06:16:47.007Z,78
2023-03-11T06:17:19.283Z,78
2023-03-11T06:17:51.327Z,78
2023-03-11T06:18:23.100Z,78
2023-03-11T06:18:55.062Z,78
2023-03-11T06:19:27.140Z,78
2023-03-11T06:19:58.774Z,78
2023-03-11T06:20:15.423Z,78
2023-03-11T06:20:46.805Z,78
2023-03-11T06:21:31.164Z,78
2023-03-11T06:22:04.109Z,78
2023-03-11T06:22:34.789Z,78
2023-03-11T06:23:06.981Z,78
2023-03-11T06:23:39.033Z,78
2023-03-11T06:24:10.786Z,77
2023-03-11T06:24:42.987Z,77
2023-03-11T06:25:15.043Z,77
2023-03-11T06:25:46.901Z,77
2023-03-11T06:26:18.949Z,77
2023-03-11T06:26:50.784Z,76
2023-03-11T06:27:06.815Z,76
2023-03-11T06:27:50.637Z,76
2023-03-11T06:28:22.859Z,76
2023-03-11T06:28:54.552Z,76
2023-03-11T06:29:26.498Z,76
2023-03-11T06:29:58.586Z,76
2023-03-11T06:30:30.944Z,75
2023-03-11T06:31:03.549Z,75
2023-03-11T06:31:34.366Z,75
2023-03-11T06:31:50.709Z,75
2023-03-11T06:32:22.621Z,75
2023-03-11T06:32:38.693Z,75
2023-03-11T06:33:10.482Z,74
2023-03-11T06:33:42.509Z,74
2023-03-11T06:34:14.233Z,74
2023-03-11T06:34:46.389Z,74
2023-03-11T06:35:19.994Z,74
2023-03-11T06:35:50.255Z,75
2023-03-11T06:36:23.906Z,74
2023-03-11T06:36:54.289Z,74
2023-03-11T06:37:26.247Z,74
2023-03-11T06:37:58.192Z,73
2023-03-11T06:38:14.183Z,73
2023-03-11T06:38:46.225Z,73
2023-03-11T06:39:30.145Z,74
2023-03-11T06:40:03.172Z,74
2023-03-11T06:40:34.103Z,74
2023-03-11T06:40:50.575Z,74
2023-03-11T06:41:34.101Z,74
2023-03-11T06:42:06.120Z,74
2023-03-11T06:42:37.990Z,74
2023-03-11T06:43:09.984Z,74
2023-03-11T06:43:42.172Z,74
2023-03-11T06:44:13.966Z,74
2023-03-11T06:44:45.906Z,74
2023-03-11T06:45:20.710Z,74
2023-03-11T06:45:49.959Z,74
2023-03-11T06:46:22.204Z,74
2023-03-11T06:46:53.750Z,74
2023-03-11T06:47:25.683Z,74
2023-03-11T06:47:57.762Z,74
2023-03-11T06:48:29.819Z,74
2023-03-11T06:49:02.068Z,74
2023-03-11T06:49:33.767Z,74
2023-03-11T06:50:06.470Z,74
2023-03-11T06:50:37.897Z,73
2023-03-11T06:51:09.674Z,73
2023-03-11T06:51:41.752Z,74
2023-03-11T06:52:13.485Z,73
2023-03-11T06:52:45.676Z,73
2023-03-11T06:53:17.677Z,73
2023-03-11T06:53:49.573Z,73
2023-03-11T06:54:22.054Z,73
2023-03-11T06:54:53.539Z,73
2023-03-11T06:55:25.673Z,73
2023-03-11T06:55:57.403Z,73
2023-03-11T06:56:29.316Z,73
2023-03-11T06:57:02.021Z,73
2023-03-11T06:57:33.270Z,73
2023-03-11T06:58:05.590Z,74
2023-03-11T06:58:21.648Z,73
2023-03-11T06:58:53.199Z,73
2023-03-11T06:59:37.613Z,72
2023-03-11T07:00:10.045Z,72
2023-03-11T07:00:42.754Z,72
2023-03-11T07:01:13.709Z,72
2023-03-11T07:01:45.346Z,71
2023-03-11T07:02:17.088Z,71
2023-03-11T07:02:49.253Z,71
2023-03-11T07:03:05.404Z,70
2023-03-11T07:03:49.314Z,70
2023-03-11T07:04:21.417Z,70
2023-03-11T07:04:52.906Z,70
2023-03-11T07:05:25.422Z,69
2023-03-11T07:05:57.251Z,70
2023-03-11T07:06:28.993Z,71
2023-03-11T07:07:01.174Z,70
2023-03-11T07:07:33.110Z,70
2023-03-11T07:07:49.142Z,70
2023-03-11T07:08:20.991Z,69
2023-03-11T07:08:37.164Z,69
2023-03-11T07:09:08.873Z,70
2023-03-11T07:09:40.992Z,70
2023-03-11T07:10:13.113Z,70
2023-03-11T07:10:44.952Z,69
2023-03-11T07:11:16.762Z,70
2023-03-11T07:11:48.846Z,69
2023-03-11T07:12:06.791Z,69
2023-03-11T07:12:36.796Z,69
2023-03-11T07:13:20.926Z,67
2023-03-11T07:13:52.714Z,69
2023-03-11T07:14:24.578Z,68
2023-03-11T07:14:56.625Z,68
2023-03-11T07:15:29.085Z,68
2023-03-11T07:16:00.645Z,69
2023-03-11T07:16:32.672Z,69
2023-03-11T07:16:48.876Z,68
2023-03-11T07:17:32.814Z,68
2023-03-11T07:18:05.370Z,68
2023-03-11T07:18:36.623Z,68
2023-03-11T07:19:08.512Z,69
2023-03-11T07:19:40.711Z,69
2023-03-11T07:20:13.077Z,68
2023-03-11T07:20:44.197Z,67
2023-03-11T07:21:16.644Z,68
2023-03-11T07:21:48.635Z,69
2023-03-11T07:22:20.446Z,68
2023-03-11T07:22:52.436Z,68
2023-03-11T07:23:24.349Z,68
2023-03-11T07:23:56.335Z,68
2023-03-11T07:24:28.476Z,67
2023-03-11T07:25:01.413Z,68
2023-03-11T07:25:32.294Z,68
2023-03-11T07:25:50.824Z,67
2023-03-11T07:26:20.320Z,67
2023-03-11T07:26:36.475Z,66